createdAt,value
2018-10-11T00:00:42.772Z,68.65
2018-10-11T00:01:45.435Z,68.76
2018-10-11T00:02:48.044Z,69.52
2018-10-11T00:03:50.717Z,68.78
2018-10-11T00:04:53.792Z,69.55
2018-10-11T00:05:56.456Z,69.24
2018-10-11T00:06:59.092Z,69.31
2018-10-11T00:08:01.745Z,68.31
2018-10-11T00:09:06.671Z,68.10
2018-10-11T00:10:09.362Z,67.85
2018-10-11T00:11:12.303Z,68.80
2018-10-11T00:12:14.967Z,67.86
2018-10-11T00:13:18.258Z,68.69
2018-10-11T00:14:20.894Z,68.90
2018-10-11T00:15:23.616Z,68.14
2018-10-11T00:16:26.260Z,68.83
2018-10-11T00:17:29.199Z,68.40
2018-10-11T00:18:31.828Z,68.16
2018-10-11T00:19:34.522Z,69.14
2018-10-11T00:20:37.263Z,68.80
2018-10-11T00:21:40.371Z,68.46
2018-10-11T00:22:43.111Z,68.51
2018-10-11T00:23:46.273Z,68.30
2018-10-11T00:24:48.945Z,69.08
2018-10-11T00:25:51.576Z,68.83
2018-10-11T00:26:54.224Z,69.08
2018-10-11T00:27:56.858Z,69.27
2018-10-11T00:28:59.523Z,68.84
2018-10-11T00:30:02.440Z,69.29
2018-10-11T00:31:05.115Z,69.52
2018-10-11T00:32:07.760Z,70.55
2018-10-11T00:33:10.468Z,69.62
2018-10-11T00:34:13.117Z,69.57
2018-10-11T00:35:15.752Z,69.67
2018-10-11T00:36:18.690Z,69.78
2018-10-11T00:37:21.307Z,69.55
2018-10-11T00:38:23.943Z,69.42
2018-10-11T00:39:26.893Z,69.42
2018-10-11T00:40:29.533Z,69.96
2018-10-11T00:41:32.171Z,69.67
2018-10-11T00:42:35.071Z,69.87
2018-10-11T00:43:37.739Z,69.06
2018-10-11T00:44:40.393Z,69.26
2018-10-11T00:45:43.737Z,69.93
2018-10-11T00:46:47.818Z,69.68
2018-10-11T00:47:50.471Z,68.99
2018-10-11T00:48:53.391Z,69.29
2018-10-11T00:49:56.016Z,69.15
2018-10-11T00:50:59.235Z,69.63
2018-10-11T00:52:01.864Z,69.58
2018-10-11T00:53:05.047Z,69.25
2018-10-11T00:54:07.753Z,69.26
2018-10-11T00:55:10.680Z,69.63
2018-10-11T00:56:13.299Z,70.13
2018-10-11T00:57:16.464Z,70.16
2018-10-11T00:58:19.140Z,70.16
2018-10-11T00:59:21.781Z,70.07
2018-10-11T01:00:24.428Z,69.92
2018-10-11T01:01:27.418Z,68.84
2018-10-11T01:02:30.219Z,69.56
2018-10-11T01:03:32.843Z,69.31
2018-10-11T01:04:35.520Z,68.86
2018-10-11T01:05:38.331Z,68.94
2018-10-11T01:06:41.094Z,68.04
2018-10-11T01:07:45.994Z,67.99
2018-10-11T01:08:48.638Z,68.30
2018-10-11T01:09:51.326Z,68.10
2018-10-11T01:10:53.932Z,67.78
2018-10-11T01:11:56.640Z,67.54
2018-10-11T01:12:59.249Z,67.93
2018-10-11T01:14:02.224Z,68.20
2018-10-11T01:15:04.873Z,68.17
2018-10-11T01:16:07.526Z,67.75
2018-10-11T01:17:10.162Z,68.19
2018-10-11T01:18:12.908Z,68.80
2018-10-11T01:19:15.549Z,67.99
2018-10-11T01:20:18.510Z,68.79
2018-10-11T01:21:21.198Z,67.77
2018-10-11T01:22:24.427Z,68.61
2018-10-11T01:23:27.206Z,68.25
2018-10-11T01:24:29.815Z,68.22
2018-10-11T01:25:32.470Z,68.31
2018-10-11T01:26:35.382Z,67.62
2018-10-11T01:27:38.057Z,67.99
2018-10-11T01:28:40.695Z,67.40
2018-10-11T01:29:43.391Z,68.25
2018-10-11T01:30:51.073Z,67.71
2018-10-11T01:31:53.746Z,67.91
2018-10-11T01:32:56.703Z,68.39
2018-10-11T01:33:59.334Z,68.28
2018-10-11T01:35:02.066Z,67.88
2018-10-11T01:36:04.700Z,68.31
2018-10-11T01:37:08.167Z,67.87
2018-10-11T01:38:10.770Z,68.35
2018-10-11T01:39:13.715Z,68.79
2018-10-11T01:40:16.385Z,69.12
2018-10-11T01:41:28.486Z,68.51
2018-10-11T01:42:31.130Z,68.84
2018-10-11T01:43:33.787Z,68.84
2018-10-11T01:44:36.589Z,69.48
2018-10-11T01:45:39.587Z,69.39
2018-10-11T01:46:42.433Z,68.96
2018-10-11T01:47:45.911Z,69.85
2018-10-11T01:48:48.798Z,70.01
2018-10-11T01:49:52.721Z,70.12
2018-10-11T01:50:55.468Z,70.10
2018-10-11T01:51:58.538Z,70.06
2018-10-11T01:53:01.308Z,70.18
2018-10-11T01:54:03.978Z,69.43
2018-10-11T01:55:06.648Z,70.40
2018-10-11T01:56:10.942Z,69.99
2018-10-11T01:57:13.823Z,70.96
2018-10-11T01:58:17.047Z,70.79
2018-10-11T01:59:19.689Z,69.87
2018-10-11T02:00:22.315Z,70.21
2018-10-11T02:01:25.068Z,70.27
2018-10-11T02:02:27.726Z,69.73
2018-10-11T02:03:30.382Z,70.02
2018-10-11T02:04:35.393Z,70.48
2018-10-11T02:05:38.049Z,70.16
2018-10-11T02:06:40.946Z,70.11
2018-10-11T02:07:43.585Z,70.67
2018-10-11T02:08:46.245Z,70.22
2018-10-11T02:09:48.902Z,70.66
2018-10-11T02:10:51.853Z,70.49
2018-10-11T02:11:54.532Z,70.14
2018-10-11T02:12:57.883Z,69.97
2018-10-11T02:14:00.708Z,70.70
2018-10-11T02:15:03.401Z,71.14
2018-10-11T02:16:06.025Z,70.64
2018-10-11T02:17:09.101Z,70.76
2018-10-11T02:18:11.756Z,71.83
2018-10-11T02:19:14.376Z,71.35
2018-10-11T02:20:17.031Z,71.71
2018-10-11T02:21:20.341Z,71.33
2018-10-11T02:22:24.416Z,71.36
2018-10-11T02:23:28.635Z,71.13
2018-10-11T02:24:31.341Z,71.01
2018-10-11T02:25:34.064Z,71.21
2018-10-11T02:26:36.674Z,71.31
2018-10-11T02:27:39.576Z,70.95
2018-10-11T02:28:42.233Z,70.61
2018-10-11T02:29:45.215Z,70.92
2018-10-11T02:30:47.826Z,71.84
2018-10-11T02:31:50.537Z,71.30
2018-10-11T02:32:53.156Z,70.55
2018-10-11T02:33:55.903Z,70.61
2018-10-11T02:34:58.735Z,70.87
2018-10-11T02:36:01.884Z,70.78
2018-10-11T02:37:04.540Z,70.87
2018-10-11T02:38:07.284Z,71.47
2018-10-11T02:39:10.976Z,71.63
2018-10-11T02:40:13.637Z,71.82
2018-10-11T02:41:16.593Z,72.08
2018-10-11T02:42:19.768Z,72.28
2018-10-11T02:43:22.450Z,71.72
2018-10-11T02:44:25.119Z,71.31
2018-10-11T02:45:27.857Z,71.95
2018-10-11T02:46:30.503Z,71.34
2018-10-11T02:47:33.148Z,71.76
2018-10-11T02:48:36.246Z,72.16
2018-10-11T02:49:38.873Z,71.52
2018-10-11T02:50:41.514Z,72.42
2018-10-11T02:51:44.224Z,71.79
2018-10-11T02:52:47.244Z,72.07
2018-10-11T02:53:49.954Z,72.95
2018-10-11T02:54:52.932Z,72.92
2018-10-11T02:55:55.606Z,72.91
2018-10-11T02:56:58.253Z,72.65
2018-10-11T02:58:01.278Z,73.10
2018-10-11T02:59:03.977Z,72.71
2018-10-11T03:00:06.653Z,73.05
2018-10-11T03:01:09.882Z,73.31
2018-10-11T03:02:13.677Z,72.57
2018-10-11T03:03:16.340Z,73.08
2018-10-11T03:04:18.969Z,73.52
2018-10-11T03:05:21.671Z,73.33
2018-10-11T03:06:29.512Z,73.25
2018-10-11T03:07:32.274Z,73.65
2018-10-11T03:08:34.940Z,73.07
2018-10-11T03:09:37.623Z,72.85
2018-10-11T03:10:40.281Z,72.92
2018-10-11T03:11:43.673Z,73.16
2018-10-11T03:12:46.707Z,73.27
2018-10-11T03:13:49.327Z,73.17
2018-10-11T03:14:51.957Z,72.80
2018-10-11T03:15:54.699Z,73.48
2018-10-11T03:16:57.351Z,73.39
2018-10-11T03:17:59.999Z,73.52
2018-10-11T03:19:03.199Z,74.52
2018-10-11T03:20:05.950Z,75.85
2018-10-11T03:21:08.629Z,76.19
2018-10-11T03:22:11.677Z,75.74
2018-10-11T03:23:16.318Z,76.67
2018-10-11T03:24:19.017Z,75.72
2018-10-11T03:25:22.217Z,76.18
2018-10-11T03:26:24.908Z,76.44
2018-10-11T03:27:27.554Z,76.48
2018-10-11T03:28:30.194Z,76.01
2018-10-11T03:29:33.397Z,75.93
2018-10-11T03:30:36.101Z,76.13
2018-10-11T03:31:39.034Z,77.10
2018-10-11T03:32:42.154Z,77.07
2018-10-11T03:33:45.827Z,77.50
2018-10-11T03:34:48.477Z,77.41
2018-10-11T03:35:51.112Z,77.64
2018-10-11T03:36:53.760Z,76.98
2018-10-11T03:37:56.995Z,77.75
2018-10-11T03:38:59.685Z,77.06
2018-10-11T03:40:02.491Z,77.01
2018-10-11T03:41:05.491Z,78.00
2018-10-11T03:42:08.655Z,77.35
2018-10-11T03:43:11.363Z,77.89
2018-10-11T03:44:14.622Z,78.04
2018-10-11T03:45:17.259Z,78.08
2018-10-11T03:46:19.889Z,78.16
2018-10-11T03:47:22.547Z,79.53
2018-10-11T03:48:25.212Z,79.21
2018-10-11T03:49:27.880Z,78.94
2018-10-11T03:50:30.811Z,79.10
2018-10-11T03:51:33.457Z,79.04
2018-10-11T03:52:36.138Z,79.21
2018-10-11T03:53:38.774Z,79.04
2018-10-11T03:54:41.424Z,78.27
2018-10-11T03:55:44.069Z,78.76
2018-10-11T03:56:46.991Z,78.64
2018-10-11T03:57:49.613Z,78.90
2018-10-11T03:58:52.283Z,78.68
2018-10-11T03:59:54.918Z,78.43
2018-10-11T04:00:57.604Z,78.75
2018-10-11T04:02:00.271Z,78.98
2018-10-11T04:03:03.299Z,78.80
2018-10-11T04:04:05.962Z,79.14
2018-10-11T04:05:08.608Z,79.39
2018-10-11T04:06:11.222Z,79.69
2018-10-11T04:07:13.865Z,79.42
2018-10-11T04:08:16.832Z,79.55
2018-10-11T04:09:19.755Z,79.90
2018-10-11T04:10:22.685Z,79.43
2018-10-11T04:11:25.335Z,79.92
2018-10-11T04:12:27.980Z,79.70
2018-10-11T04:13:30.631Z,79.96
2018-10-11T04:14:33.623Z,80.08
2018-10-11T04:15:36.362Z,80.19
2018-10-11T04:16:39.593Z,80.13
2018-10-11T04:17:42.219Z,80.57
2018-10-11T04:18:44.823Z,80.53
2018-10-11T04:19:47.463Z,80.90
2018-10-11T04:20:50.496Z,80.78
2018-10-11T04:21:53.134Z,80.16
2018-10-11T04:22:55.785Z,81.28
2018-10-11T04:23:58.949Z,81.16
2018-10-11T04:25:01.688Z,81.33
2018-10-11T04:26:04.330Z,80.94
2018-10-11T04:27:07.268Z,81.19
2018-10-11T04:28:09.907Z,80.75
2018-10-11T04:29:12.555Z,80.85
2018-10-11T04:30:15.196Z,81.25
2018-10-11T04:31:17.843Z,81.25
2018-10-11T04:32:20.458Z,80.84
2018-10-11T04:33:23.575Z,80.27
2018-10-11T04:34:26.398Z,80.32
2018-10-11T04:35:29.023Z,80.62
2018-10-11T04:36:31.698Z,80.30
2018-10-11T04:37:34.379Z,80.76
2018-10-11T04:38:36.998Z,80.79
2018-10-11T04:39:39.925Z,80.27
2018-10-11T04:40:43.065Z,80.53
2018-10-11T04:41:45.714Z,81.31
2018-10-11T04:42:48.414Z,81.39
2018-10-11T04:43:51.044Z,81.46
2018-10-11T04:44:53.709Z,80.95
2018-10-11T04:45:56.650Z,80.87
2018-10-11T04:47:00.131Z,81.12
2018-10-11T04:48:02.825Z,81.38
2018-10-11T04:49:05.498Z,81.40
2018-10-11T04:50:08.157Z,81.58
2018-10-11T04:51:10.838Z,81.57
2018-10-11T04:52:13.836Z,81.85
2018-10-11T04:53:16.601Z,81.99
2018-10-11T04:54:19.277Z,81.69
2018-10-11T04:55:22.126Z,81.82
2018-10-11T04:56:24.802Z,81.88
2018-10-11T04:57:27.422Z,81.92
2018-10-11T04:58:30.513Z,82.18
2018-10-11T04:59:33.274Z,81.58
2018-10-11T05:00:35.972Z,83.07
2018-10-11T05:01:38.642Z,83.10
2018-10-11T05:02:41.511Z,83.24
2018-10-11T05:03:44.192Z,83.14
2018-10-11T05:04:47.275Z,83.21
2018-10-11T05:05:50.121Z,82.62
2018-10-11T05:06:52.784Z,82.06
2018-10-11T05:07:55.666Z,82.72
2018-10-11T05:08:58.404Z,82.81
2018-10-11T05:10:01.119Z,82.94
2018-10-11T05:11:04.314Z,83.11
2018-10-11T05:12:07.057Z,82.98
2018-10-11T05:13:09.711Z,82.80
2018-10-11T05:14:12.705Z,83.69
2018-10-11T05:15:15.348Z,83.22
2018-10-11T05:16:18.291Z,83.66
2018-10-11T05:17:21.339Z,82.75
2018-10-11T05:18:24.004Z,82.51
2018-10-11T05:19:26.663Z,82.59
2018-10-11T05:20:29.339Z,83.24
2018-10-11T05:21:32.053Z,82.69
2018-10-11T05:22:34.783Z,82.79
2018-10-11T05:23:37.998Z,83.91
2018-10-11T05:24:40.656Z,83.73
2018-10-11T05:25:43.340Z,83.20
2018-10-11T05:26:45.984Z,83.25
2018-10-11T05:27:48.753Z,83.15
2018-10-11T05:28:51.743Z,83.10
2018-10-11T05:29:54.827Z,83.35
2018-10-11T05:43:54.419Z,83.23
2018-10-11T05:44:58.035Z,83.72
2018-10-11T05:46:00.674Z,83.44
2018-10-11T05:47:03.622Z,83.59
2018-10-11T05:48:06.251Z,83.35
2018-10-11T05:49:09.308Z,83.37
2018-10-11T05:50:12.389Z,83.76
2018-10-11T05:51:15.004Z,84.09
2018-10-11T05:52:17.643Z,84.22
2018-10-11T05:53:20.378Z,84.65
2018-10-11T05:54:23.039Z,84.56
2018-10-11T05:55:26.177Z,83.64
2018-10-11T05:56:29.255Z,83.70
2018-10-11T05:57:31.887Z,83.26
2018-10-11T05:58:34.535Z,83.77
2018-10-11T05:59:37.987Z,83.42
2018-10-11T06:00:40.641Z,84.06
2018-10-11T06:01:43.777Z,83.64
2018-10-11T06:02:46.429Z,83.62
2018-10-11T06:03:49.108Z,83.21
2018-10-11T06:04:53.290Z,83.41
2018-10-11T06:05:55.950Z,83.10
2018-10-11T06:06:58.597Z,83.83
2018-10-11T06:08:01.769Z,83.45
2018-10-11T06:09:05.913Z,83.58
2018-10-11T06:10:08.679Z,82.84
2018-10-11T06:11:11.751Z,82.21
2018-10-11T06:12:14.544Z,81.69
2018-10-11T06:13:17.178Z,81.35
2018-10-11T06:14:20.328Z,81.40
2018-10-11T06:15:22.983Z,81.55
2018-10-11T06:16:25.941Z,80.97
2018-10-11T06:17:28.627Z,81.04
2018-10-11T06:18:31.288Z,81.22
2018-10-11T06:19:34.450Z,81.34
2018-10-11T06:20:37.530Z,81.62
2018-10-11T06:21:40.159Z,81.14
2018-10-11T06:22:43.170Z,81.25
2018-10-11T06:23:47.705Z,80.34
2018-10-11T06:24:50.737Z,80.55
2018-10-11T06:25:54.732Z,80.38
2018-10-11T06:27:02.347Z,79.30
2018-10-11T06:28:05.846Z,78.69
2018-10-11T06:29:08.853Z,78.95
2018-10-11T06:30:12.506Z,78.66
2018-10-11T06:31:15.344Z,78.80
2018-10-11T06:32:19.171Z,77.88
2018-10-11T06:33:22.378Z,78.17
2018-10-11T06:34:25.340Z,78.00
2018-10-11T06:35:28.126Z,77.94
2018-10-11T06:36:31.606Z,77.75
2018-10-11T06:37:34.785Z,77.05
2018-10-11T06:38:41.606Z,76.16
2018-10-11T06:39:49.822Z,75.78
2018-10-11T06:40:55.756Z,75.24
2018-10-11T06:41:58.657Z,74.40
2018-10-11T06:43:01.722Z,74.43
2018-10-11T06:44:04.489Z,73.75
2018-10-11T06:45:07.178Z,73.69
2018-10-11T06:46:10.533Z,76.01
2018-10-11T06:47:14.055Z,75.62
2018-10-11T06:48:18.560Z,75.00
2018-10-11T06:49:21.243Z,74.27
2018-10-11T06:50:24.004Z,72.94
2018-10-11T06:51:26.669Z,70.88
2018-10-11T06:52:30.082Z,73.00
2018-10-11T06:53:34.996Z,73.21
2018-10-11T06:54:37.913Z,72.15
2018-10-11T06:55:42.188Z,72.03
2018-10-11T06:56:50.138Z,72.83
2018-10-11T06:57:53.225Z,74.28
2018-10-11T06:58:56.462Z,73.35
2018-10-11T06:59:59.093Z,72.86
2018-10-11T07:01:02.767Z,72.30
2018-10-11T07:02:05.605Z,71.57
2018-10-11T07:03:08.733Z,71.08
2018-10-11T07:04:11.523Z,69.54
2018-10-11T07:05:14.850Z,69.26
2018-10-11T07:06:18.582Z,68.54
2018-10-11T07:07:22.228Z,68.58
2018-10-11T07:08:26.498Z,68.47
2018-10-11T07:09:29.778Z,67.43
2018-10-11T07:10:33.268Z,67.77
2018-10-11T07:11:37.491Z,67.90
2018-10-11T07:12:44.986Z,66.91
2018-10-11T07:13:48.322Z,66.96
2018-10-11T07:14:51.548Z,65.17
2018-10-11T07:15:54.549Z,65.71
2018-10-11T07:16:58.508Z,65.12
2018-10-11T07:18:01.386Z,64.84
2018-10-11T07:19:04.063Z,64.39
2018-10-11T07:20:06.726Z,63.45
2018-10-11T07:21:09.382Z,64.18
2018-10-11T07:22:12.833Z,63.87
2018-10-11T07:23:16.323Z,62.44
2018-10-11T07:24:19.966Z,63.20
2018-10-11T07:25:28.984Z,63.06
2018-10-11T07:26:32.215Z,62.91
2018-10-11T07:27:34.903Z,62.03
2018-10-11T07:28:38.127Z,62.25
2018-10-11T07:29:40.764Z,61.20
2018-10-11T07:30:43.808Z,62.79
2018-10-11T07:31:46.624Z,62.50
2018-10-11T07:32:49.257Z,62.36
2018-10-11T07:33:52.755Z,62.49
2018-10-11T07:34:55.574Z,61.75
2018-10-11T07:35:58.258Z,61.19
2018-10-11T07:37:01.441Z,59.83
2018-10-11T07:38:04.127Z,59.76
2018-10-11T07:39:06.757Z,58.70
2018-10-11T07:40:10.442Z,58.11
2018-10-11T07:41:13.791Z,59.12
2018-10-11T07:42:16.511Z,59.48
2018-10-11T07:43:19.938Z,58.80
2018-10-11T07:44:23.794Z,58.17
2018-10-11T07:45:27.379Z,58.55
2018-10-11T07:46:30.398Z,59.42
2018-10-11T07:47:34.159Z,59.52
2018-10-11T07:48:37.446Z,58.84
2018-10-11T07:49:40.732Z,57.18
2018-10-11T07:50:43.671Z,58.00
2018-10-11T07:51:46.678Z,57.96
2018-10-11T07:52:49.652Z,59.24
2018-10-11T07:53:52.543Z,58.80
2018-10-11T07:54:55.397Z,58.61
2018-10-11T07:55:58.515Z,60.21
2018-10-11T07:57:01.288Z,58.37
2018-10-11T07:58:04.079Z,58.81
2018-10-11T07:59:08.579Z,58.84
2018-10-11T08:00:13.282Z,57.16
2018-10-11T08:01:17.596Z,56.96
2018-10-11T10:43:13.322Z,44.51
2018-10-11T10:44:16.041Z,44.34
2018-10-11T10:45:18.911Z,42.92
2018-10-11T10:46:22.594Z,42.19
2018-10-11T10:47:26.027Z,43.82
2018-10-11T10:48:30.457Z,43.54
2018-10-11T10:49:34.750Z,43.83
2018-10-11T10:50:38.574Z,44.43
2018-10-11T10:51:42.317Z,45.15
2018-10-11T10:52:45.518Z,44.63
2018-10-11T10:53:50.510Z,43.46
2018-10-11T10:54:55.406Z,42.57
2018-10-11T10:55:58.482Z,41.00
2018-10-11T10:57:02.532Z,40.29
2018-10-11T10:58:05.389Z,40.04
2018-10-11T10:59:08.564Z,39.86
2018-10-11T11:00:11.414Z,39.18
2018-10-11T11:01:14.605Z,38.24
2018-10-11T11:02:17.321Z,38.97
2018-10-11T11:03:20.733Z,38.67
2018-10-11T11:04:26.556Z,38.03
2018-10-11T11:05:29.360Z,37.28
2018-10-11T11:06:32.867Z,36.90
2018-10-11T11:07:35.640Z,36.95
2018-10-11T11:08:40.450Z,38.50
2018-10-11T11:09:43.367Z,36.95
2018-10-11T11:10:49.337Z,38.14
2018-10-11T11:11:59.831Z,37.46
2018-10-11T11:13:04.004Z,37.73
2018-10-11T11:14:06.756Z,36.16
2018-10-11T11:15:10.237Z,36.07
2018-10-11T11:16:13.501Z,38.56
2018-10-11T11:17:19.918Z,38.90
2018-10-11T11:18:23.255Z,41.03
2018-10-11T11:19:31.618Z,42.23
2018-10-11T11:20:35.359Z,41.80
2018-10-11T11:21:38.178Z,42.87
2018-10-11T11:22:40.974Z,44.36
2018-10-11T11:23:45.159Z,43.19
2018-10-11T11:24:49.587Z,40.94
2018-10-11T11:25:52.337Z,40.48
2018-10-11T11:26:55.788Z,38.58
2018-10-11T11:28:01.289Z,37.49
2018-10-11T11:29:04.232Z,38.08
2018-10-11T11:30:07.844Z,37.00
2018-10-11T11:31:12.886Z,38.13
2018-10-11T11:32:17.359Z,38.83
2018-10-11T11:33:21.351Z,39.20
2018-10-11T11:34:24.478Z,39.61
2018-10-11T11:35:28.575Z,40.29
2018-10-11T11:36:31.733Z,40.64
2018-10-11T11:37:34.932Z,40.02
2018-10-11T11:38:38.457Z,40.62
2018-10-11T11:39:41.527Z,39.15
2018-10-11T11:40:44.303Z,40.71
2018-10-11T11:41:48.004Z,41.23
2018-10-11T11:42:52.143Z,40.42
2018-10-11T11:43:55.708Z,41.10
2018-10-11T11:44:58.813Z,43.16
2018-10-11T11:46:03.553Z,42.69
2018-10-11T11:47:06.739Z,43.18
2018-10-11T11:48:09.924Z,42.36
2018-10-11T11:49:13.021Z,41.01
2018-10-11T11:50:18.633Z,41.09
2018-10-11T11:51:21.550Z,41.56
2018-10-11T11:52:24.532Z,39.73
2018-10-11T11:53:28.815Z,38.84
2018-10-11T11:54:32.011Z,38.99
2018-10-11T11:55:34.941Z,40.05
2018-10-11T11:56:37.968Z,39.58
2018-10-11T11:57:40.664Z,40.41
2018-10-11T11:58:43.529Z,40.75
2018-10-11T11:59:46.407Z,41.20
2018-10-11T12:00:50.082Z,41.77
2018-10-11T12:01:52.966Z,42.78
2018-10-11T12:02:57.984Z,41.69
2018-10-11T12:04:03.205Z,40.77
2018-10-11T12:05:07.310Z,41.11
2018-10-11T12:06:10.752Z,41.90
2018-10-11T12:07:15.111Z,39.44
2018-10-11T12:08:18.796Z,39.72
2018-10-11T12:09:22.271Z,39.96
2018-10-11T12:10:25.855Z,41.39
2018-10-11T12:11:29.588Z,43.24
2018-10-11T12:12:32.514Z,44.58
2018-10-11T12:13:35.498Z,43.06
2018-10-11T12:14:38.641Z,42.03
2018-10-11T12:15:43.039Z,39.86
2018-10-11T12:16:46.372Z,41.11
2018-10-11T12:17:50.894Z,41.04
2018-10-11T12:18:54.650Z,43.84
2018-10-11T12:19:59.915Z,42.84
2018-10-11T12:21:06.287Z,42.19
2018-10-11T12:22:10.220Z,38.79
2018-10-11T12:23:13.811Z,42.12
2018-10-11T12:24:21.127Z,43.56
2018-10-11T12:25:23.902Z,42.71
2018-10-11T12:26:27.177Z,41.46
2018-10-11T12:27:31.439Z,39.50
2018-10-11T12:28:35.678Z,39.02
2018-10-11T12:29:40.101Z,38.37
2018-10-11T12:30:44.141Z,38.75
2018-10-11T12:31:47.143Z,38.55
2018-10-11T12:32:50.355Z,37.69
2018-10-11T12:33:53.105Z,38.96
2018-10-11T12:34:56.325Z,40.28
2018-10-11T12:36:01.683Z,39.72
2018-10-11T12:37:05.756Z,40.63
2018-10-11T12:38:08.786Z,41.29
2018-10-11T12:39:12.069Z,41.18
2018-10-11T12:40:16.031Z,40.61
2018-10-11T12:41:19.882Z,41.74
2018-10-11T12:42:23.108Z,40.63
2018-10-11T12:43:25.923Z,40.83
2018-10-11T12:44:28.676Z,42.28
2018-10-11T12:45:31.816Z,41.31
2018-10-11T12:46:36.232Z,40.07
2018-10-11T12:47:38.061Z,37.91
2018-10-11T12:48:43.498Z,38.66
2018-10-11T12:49:49.487Z,37.05
2018-10-11T12:50:54.995Z,37.64
2018-10-11T12:51:58.116Z,37.58
2018-10-11T12:53:01.423Z,36.55
2018-10-11T12:54:05.359Z,36.92
2018-10-11T12:55:08.501Z,35.73
2018-10-11T12:56:11.501Z,36.01
2018-10-11T12:57:17.169Z,35.41
2018-10-11T12:58:17.361Z,36.96
2018-10-11T12:59:21.220Z,38.28
2018-10-11T13:00:23.985Z,39.80
2018-10-11T13:01:26.809Z,41.13
2018-10-11T13:02:30.676Z,40.42
2018-10-11T13:03:33.663Z,40.07
2018-10-11T13:04:36.523Z,41.56
2018-10-11T13:05:39.902Z,41.93
2018-10-11T13:06:42.771Z,41.24
2018-10-11T13:07:45.660Z,40.95
2018-10-11T13:08:49.653Z,40.48
2018-10-11T13:09:52.444Z,41.68
2018-10-11T13:10:55.149Z,40.89
2018-10-11T13:11:58.906Z,41.42
2018-10-11T13:13:02.381Z,40.78
2018-10-11T13:14:05.845Z,40.01
2018-10-11T13:15:08.972Z,39.22
2018-10-11T13:16:11.956Z,37.66
2018-10-11T13:17:14.902Z,38.00
2018-10-11T13:18:17.741Z,36.35
2018-10-11T13:19:21.197Z,37.26
2018-10-11T13:20:24.007Z,37.48
2018-10-11T13:21:27.454Z,36.94
2018-10-11T13:22:30.405Z,37.60
2018-10-11T13:23:34.289Z,37.27
2018-10-11T13:24:40.591Z,36.08
2018-10-11T13:25:40.186Z,36.89
2018-10-11T13:26:44.313Z,38.76
2018-10-11T13:27:47.622Z,40.15
2018-10-11T13:28:51.855Z,39.15
2018-10-11T13:29:55.304Z,40.02
2018-10-11T13:30:58.427Z,39.84
2018-10-11T13:32:01.326Z,40.87
2018-10-11T13:33:04.466Z,38.97
2018-10-11T13:34:07.684Z,38.54
2018-10-11T13:35:11.679Z,37.92
2018-10-11T13:36:15.741Z,39.78
2018-10-11T13:37:19.403Z,40.03
2018-10-11T13:38:23.467Z,39.43
2018-10-11T13:39:26.432Z,40.86
2018-10-11T13:40:29.667Z,40.20
2018-10-11T13:41:33.035Z,40.92
2018-10-11T13:42:36.211Z,41.87
2018-10-11T13:43:39.842Z,41.39
2018-10-11T13:44:42.601Z,42.45
2018-10-11T13:45:47.608Z,42.51
2018-10-11T13:46:52.476Z,43.11
2018-10-11T13:47:55.313Z,43.71
2018-10-11T13:49:01.437Z,41.97
2018-10-11T13:50:05.546Z,41.84
2018-10-11T13:51:10.175Z,40.44
2018-10-11T13:52:17.051Z,43.17
2018-10-11T13:53:19.456Z,41.32
2018-10-11T14:34:59.329Z,53.04
2018-10-11T14:36:02.200Z,52.44
2018-10-11T14:37:05.521Z,53.69
2018-10-11T14:38:08.309Z,53.20
2018-10-11T14:39:11.022Z,53.19
2018-10-11T14:40:13.920Z,53.16
2018-10-11T14:41:17.631Z,53.89
2018-10-11T14:42:21.296Z,53.90
2018-10-11T14:43:25.731Z,53.90
2018-10-11T14:44:29.402Z,54.49
2018-10-11T14:45:33.449Z,54.78
2018-10-11T14:46:36.236Z,54.95
2018-10-11T14:47:39.006Z,53.97
2018-10-11T14:48:41.731Z,54.41
2018-10-11T14:49:44.727Z,54.75
2018-10-11T14:50:47.757Z,55.21
2018-10-11T14:51:50.500Z,55.21
2018-10-11T14:52:53.270Z,55.14
2018-10-11T14:53:58.877Z,55.36
2018-10-11T14:54:59.034Z,55.37
2018-10-11T14:56:03.342Z,55.12
2018-10-11T14:57:07.920Z,55.88
2018-10-11T14:58:10.850Z,55.57
2018-10-11T14:59:13.857Z,55.25
2018-10-11T15:00:16.778Z,55.75
2018-10-11T15:01:19.769Z,55.24
2018-10-11T15:02:23.164Z,55.43
2018-10-11T15:03:26.413Z,55.35
2018-10-11T15:04:29.264Z,55.83
2018-10-11T15:05:35.387Z,55.29
2018-10-11T15:06:38.120Z,55.50
2018-10-11T15:07:40.897Z,55.54
2018-10-11T15:08:44.002Z,56.37
2018-10-11T15:09:46.782Z,55.92
2018-10-11T15:10:50.747Z,55.86
2018-10-11T15:11:53.570Z,55.00
2018-10-11T15:12:58.577Z,55.34
2018-10-11T15:14:02.025Z,55.92
2018-10-11T15:15:06.599Z,55.68
2018-10-11T15:16:09.418Z,55.21
2018-10-11T15:17:12.352Z,54.84
2018-10-11T15:18:16.702Z,55.99
2018-10-11T15:19:19.487Z,55.55
2018-10-11T15:20:24.768Z,56.00
2018-10-11T15:21:29.609Z,56.28
2018-10-11T15:22:32.307Z,56.61
2018-10-11T15:23:35.390Z,56.21
2018-10-11T15:24:38.827Z,57.19
2018-10-11T15:25:41.822Z,56.26
2018-10-11T15:26:45.150Z,56.70
2018-10-11T15:27:48.391Z,57.08
2018-10-11T15:28:51.913Z,56.65
2018-10-11T15:29:54.727Z,57.27
2018-10-11T15:30:57.469Z,57.90
2018-10-11T15:32:01.886Z,56.87
2018-10-11T15:33:06.299Z,57.76
2018-10-11T15:35:15.735Z,57.39
2018-10-11T15:36:18.536Z,58.13
2018-10-11T15:37:21.253Z,57.41
2018-10-11T15:38:23.973Z,57.82
2018-10-11T15:39:26.678Z,58.11
2018-10-11T15:40:31.675Z,57.87
2018-10-11T15:41:34.730Z,57.53
2018-10-11T15:42:37.678Z,58.53
2018-10-11T15:43:43.792Z,58.32
2018-10-11T15:44:47.073Z,58.37
2018-10-11T15:45:49.843Z,58.11
2018-10-11T15:46:53.027Z,58.12
2018-10-11T15:47:56.678Z,58.21
2018-10-11T15:49:00.575Z,58.83
2018-10-11T15:50:03.554Z,58.09
2018-10-11T15:51:06.383Z,58.78
2018-10-11T15:52:09.203Z,58.50
2018-10-11T15:53:12.273Z,59.08
2018-10-11T15:54:17.530Z,59.06
2018-10-11T15:55:20.279Z,59.11
2018-10-11T15:56:23.816Z,59.24
2018-10-11T15:57:27.294Z,58.51
2018-10-11T15:58:30.837Z,58.31
2018-10-11T15:59:33.782Z,58.19
2018-10-11T16:00:36.445Z,58.25
2018-10-11T16:01:40.237Z,59.17
2018-10-11T16:02:44.489Z,58.19
2018-10-11T16:03:47.278Z,59.38
2018-10-11T16:04:50.476Z,59.38
2018-10-11T16:05:53.630Z,58.36
2018-10-11T16:06:56.612Z,58.57
2018-10-11T16:07:59.329Z,59.12
2018-10-11T16:09:02.144Z,58.98
2018-10-11T16:10:04.870Z,59.19
2018-10-11T16:11:10.054Z,58.65
2018-10-11T16:12:13.678Z,59.27
2018-10-11T16:13:18.335Z,58.73
2018-10-11T16:14:21.077Z,59.20
2018-10-11T16:15:28.445Z,58.92
2018-10-11T16:16:31.281Z,58.52
2018-10-11T16:17:34.100Z,58.62
2018-10-11T16:18:37.776Z,58.71
2018-10-11T16:19:43.229Z,58.48
2018-10-11T16:20:48.933Z,58.13
2018-10-11T16:21:52.489Z,58.38
2018-10-11T16:22:55.396Z,59.15
2018-10-11T16:23:58.142Z,58.98
2018-10-11T16:25:01.256Z,58.91
2018-10-11T16:26:04.999Z,58.92
2018-10-11T16:27:07.731Z,58.62
2018-10-11T16:28:10.555Z,58.98
2018-10-11T16:29:13.305Z,59.27
2018-10-11T16:30:17.634Z,58.73
2018-10-11T16:43:14.006Z,58.86
2018-10-11T16:44:17.527Z,59.32
2018-10-11T16:45:20.348Z,59.01
2018-10-11T16:46:26.956Z,58.54
2018-10-11T16:47:30.734Z,59.47
2018-10-11T16:48:35.586Z,59.46
2018-10-11T16:49:41.308Z,59.49
2018-10-11T16:50:44.605Z,59.64
2018-10-11T16:51:47.329Z,59.54
2018-10-11T16:52:50.048Z,58.76
2018-10-11T16:53:53.519Z,58.46
2018-10-11T16:54:56.721Z,59.19
2018-10-11T16:55:59.372Z,58.98
2018-10-11T16:57:02.112Z,59.57
2018-10-11T16:58:04.831Z,59.02
2018-10-11T16:59:09.178Z,59.06
2018-10-11T17:00:12.443Z,59.26
2018-10-11T17:01:16.570Z,59.91
2018-10-11T17:02:20.970Z,59.65
2018-10-11T17:03:24.182Z,59.86
2018-10-11T17:04:30.637Z,59.33
2018-10-11T17:05:34.811Z,59.13
2018-10-11T17:06:43.700Z,59.75
2018-10-11T17:07:48.695Z,59.90
2018-10-11T17:08:51.660Z,59.50
2018-10-11T17:09:54.751Z,60.23
2018-10-11T17:10:57.461Z,59.85
2018-10-11T17:12:00.233Z,60.07
2018-10-11T17:13:03.732Z,60.64
2018-10-11T17:14:06.748Z,60.21
2018-10-11T17:15:10.321Z,59.74
2018-10-11T17:16:13.255Z,60.39
2018-10-11T17:17:18.419Z,60.51
2018-10-11T17:18:25.431Z,59.99
2018-10-11T17:19:28.681Z,59.84
2018-10-11T17:20:37.402Z,60.24
2018-10-11T17:21:40.183Z,60.73
2018-10-11T17:22:42.852Z,60.82